sensor_id;sensor_type;location;lat;lon;timestamp;temperature;humidity
21047;DHT22;10682;50.874;3.656;2022-10-16T00:01:32;14.10;99.90
21047;DHT22;10682;50.874;3.656;2022-10-16T00:03:59;14.10;99.90
21047;DHT22;10682;50.874;3.656;2022-10-16T00:06:28;14.10;99.90
21047;DHT22;10682;50.874;3.656;2022-10-16T00:08:56;14.00;99.90
21047;DHT22;10682;50.874;3.656;2022-10-16T00:11:32;14.00;99.90
21047;DHT22;10682;50.874;3.656;2022-10-16T00:14:05;13.90;99.90
21047;DHT22;10682;50.874;3.656;2022-10-16T00:16:34;13.90;99.90
21047;DHT22;10682;50.874;3.656;2022-10-16T00:19:01;13.90;99.90
21047;DHT22;10682;50.874;3.656;2022-10-16T00:21:30;13.80;99.90
21047;DHT22;10682;50.874;3.656;2022-10-16T00:24:00;13.80;99.90
21047;DHT22;10682;50.874;3.656;2022-10-16T00:26:30;13.90;99.90
21047;DHT22;10682;50.874;3.656;2022-10-16T00:28:59;13.80;99.90
21047;DHT22;10682;50.874;3.656;2022-10-16T00:31:26;13.80;99.90
21047;DHT22;10682;50.874;3.656;2022-10-16T00:33:53;13.80;99.90
21047;DHT22;10682;50.874;3.656;2022-10-16T00:36:22;13.70;99.90
21047;DHT22;10682;50.874;3.656;2022-10-16T00:38:52;13.70;99.90
21047;DHT22;10682;50.874;3.656;2022-10-16T00:41:23;13.70;99.90
21047;DHT22;10682;50.874;3.656;2022-10-16T00:43:53;13.70;99.90
21047;DHT22;10682;50.874;3.656;2022-10-16T00:46:40;13.70;99.90
21047;DHT22;10682;50.874;3.656;2022-10-16T00:49:18;13.80;99.90
21047;DHT22;10682;50.874;3.656;2022-10-16T00:51:50;13.70;99.90
21047;DHT22;10682;50.874;3.656;2022-10-16T00:54:21;13.80;99.90
21047;DHT22;10682;50.874;3.656;2022-10-16T00:56:51;13.70;99.90
21047;DHT22;10682;50.874;3.656;2022-10-16T01:01:55;13.80;99.90
21047;DHT22;10682;50.874;3.656;2022-10-16T01:04:23;13.70;99.90
21047;DHT22;10682;50.874;3.656;2022-10-16T01:07:10;13.80;99.90
21047;DHT22;10682;50.874;3.656;2022-10-16T01:15:41;13.80;99.90
21047;DHT22;10682;50.874;3.656;2022-10-16T01:18:16;13.80;99.90
21047;DHT22;10682;50.874;3.656;2022-10-16T01:20:56;13.70;99.90
21047;DHT22;10682;50.874;3.656;2022-10-16T01:29:38;13.70;99.90
21047;DHT22;10682;50.874;3.656;2022-10-16T01:35:12;13.60;99.90
21047;DHT22;10682;50.874;3.656;2022-10-16T01:37:48;13.60;99.90
21047;DHT22;10682;50.874;3.656;2022-10-16T01:40:24;13.60;99.90
21047;DHT22;10682;50.874;3.656;2022-10-16T01:42:56;13.60;99.90
21047;DHT22;10682;50.874;3.656;2022-10-16T01:45:28;13.60;99.90
21047;DHT22;10682;50.874;3.656;2022-10-16T01:47:58;13.60;99.90
21047;DHT22;10682;50.874;3.656;2022-10-16T01:50:27;13.60;99.90
21047;DHT22;10682;50.874;3.656;2022-10-16T01:52:56;13.70;99.90
21047;DHT22;10682;50.874;3.656;2022-10-16T01:55:33;13.60;99.90
21047;DHT22;10682;50.874;3.656;2022-10-16T01:58:05;13.60;99.90
21047;DHT22;10682;50.874;3.656;2022-10-16T02:00:34;13.60;99.90
21047;DHT22;10682;50.874;3.656;2022-10-16T02:03:05;13.60;99.90
21047;DHT22;10682;50.874;3.656;2022-10-16T02:05:47;13.60;99.90
21047;DHT22;10682;50.874;3.656;2022-10-16T02:08:21;13.60;99.90
21047;DHT22;10682;50.874;3.656;2022-10-16T02:10:49;13.60;99.90
21047;DHT22;10682;50.874;3.656;2022-10-16T02:13:39;13.60;99.90
21047;DHT22;10682;50.874;3.656;2022-10-16T02:16:12;13.70;99.90
21047;DHT22;10682;50.874;3.656;2022-10-16T02:18:42;13.70;99.90
21047;DHT22;10682;50.874;3.656;2022-10-16T02:21:26;13.70;99.90
21047;DHT22;10682;50.874;3.656;2022-10-16T02:29:41;13.60;99.90
21047;DHT22;10682;50.874;3.656;2022-10-16T02:32:13;13.60;99.90
21047;DHT22;10682;50.874;3.656;2022-10-16T02:34:43;13.60;99.90
21047;DHT22;10682;50.874;3.656;2022-10-16T02:37:11;13.60;99.90
21047;DHT22;10682;50.874;3.656;2022-10-16T02:39:39;13.60;99.90
21047;DHT22;10682;50.874;3.656;2022-10-16T02:42:14;13.50;99.90
21047;DHT22;10682;50.874;3.656;2022-10-16T02:44:41;13.50;99.90
21047;DHT22;10682;50.874;3.656;2022-10-16T02:47:08;13.50;99.90
21047;DHT22;10682;50.874;3.656;2022-10-16T02:49:35;13.50;99.90
21047;DHT22;10682;50.874;3.656;2022-10-16T02:52:02;13.50;99.90
21047;DHT22;10682;50.874;3.656;2022-10-16T02:54:29;13.50;99.90
21047;DHT22;10682;50.874;3.656;2022-10-16T02:56:56;13.50;99.90
21047;DHT22;10682;50.874;3.656;2022-10-16T02:59:23;13.40;99.90
21047;DHT22;10682;50.874;3.656;2022-10-16T03:01:50;13.40;99.90
21047;DHT22;10682;50.874;3.656;2022-10-16T03:04:17;13.40;99.90
21047;DHT22;10682;50.874;3.656;2022-10-16T03:06:44;13.40;99.90
21047;DHT22;10682;50.874;3.656;2022-10-16T03:09:11;13.40;99.90
21047;DHT22;10682;50.874;3.656;2022-10-16T03:11:38;13.40;99.90
21047;DHT22;10682;50.874;3.656;2022-10-16T03:14:05;13.40;99.90
21047;DHT22;10682;50.874;3.656;2022-10-16T03:16:32;13.40;99.90
21047;DHT22;10682;50.874;3.656;2022-10-16T03:18:58;13.40;99.90
21047;DHT22;10682;50.874;3.656;2022-10-16T03:21:25;13.40;99.90
21047;DHT22;10682;50.874;3.656;2022-10-16T03:23:52;13.50;99.90
21047;DHT22;10682;50.874;3.656;2022-10-16T03:26:19;13.40;99.90
21047;DHT22;10682;50.874;3.656;2022-10-16T03:28:46;13.40;99.90
21047;DHT22;10682;50.874;3.656;2022-10-16T03:31:13;13.40;99.90
21047;DHT22;10682;50.874;3.656;2022-10-16T03:33:40;13.40;99.90
21047;DHT22;10682;50.874;3.656;2022-10-16T03:36:07;13.40;99.90
21047;DHT22;10682;50.874;3.656;2022-10-16T03:38:34;13.40;99.90
21047;DHT22;10682;50.874;3.656;2022-10-16T03:41:01;13.30;99.90
21047;DHT22;10682;50.874;3.656;2022-10-16T03:43:28;13.30;99.90
21047;DHT22;10682;50.874;3.656;2022-10-16T03:45:55;13.30;99.90
21047;DHT22;10682;50.874;3.656;2022-10-16T03:48:22;13.30;99.90
21047;DHT22;10682;50.874;3.656;2022-10-16T03:50:49;13.20;99.90
21047;DHT22;10682;50.874;3.656;2022-10-16T03:53:17;13.20;99.90
21047;DHT22;10682;50.874;3.656;2022-10-16T03:55:44;13.30;99.90
21047;DHT22;10682;50.874;3.656;2022-10-16T03:58:11;13.20;99.90
21047;DHT22;10682;50.874;3.656;2022-10-16T04:00:42;13.20;99.90
21047;DHT22;10682;50.874;3.656;2022-10-16T04:03:11;13.20;99.90
21047;DHT22;10682;50.874;3.656;2022-10-16T04:05:39;13.20;99.90
21047;DHT22;10682;50.874;3.656;2022-10-16T04:08:06;13.20;99.90
21047;DHT22;10682;50.874;3.656;2022-10-16T04:10:33;13.20;99.90
21047;DHT22;10682;50.874;3.656;2022-10-16T04:13:00;13.30;99.90
21047;DHT22;10682;50.874;3.656;2022-10-16T04:15:27;13.30;99.90
21047;DHT22;10682;50.874;3.656;2022-10-16T04:17:54;13.20;99.90
21047;DHT22;10682;50.874;3.656;2022-10-16T04:20:21;13.30;99.90
21047;DHT22;10682;50.874;3.656;2022-10-16T04:22:48;13.30;99.90
21047;DHT22;10682;50.874;3.656;2022-10-16T04:25:15;13.20;99.90
21047;DHT22;10682;50.874;3.656;2022-10-16T04:27:42;13.20;99.90
21047;DHT22;10682;50.874;3.656;2022-10-16T04:30:12;13.20;99.90
21047;DHT22;10682;50.874;3.656;2022-10-16T04:32:39;13.20;99.90
21047;DHT22;10682;50.874;3.656;2022-10-16T04:35:07;13.20;99.90
21047;DHT22;10682;50.874;3.656;2022-10-16T04:37:34;13.20;99.90
21047;DHT22;10682;50.874;3.656;2022-10-16T04:40:01;13.20;99.90
21047;DHT22;10682;50.874;3.656;2022-10-16T04:42:29;13.20;99.90
21047;DHT22;10682;50.874;3.656;2022-10-16T04:44:55;13.20;99.90
21047;DHT22;10682;50.874;3.656;2022-10-16T04:47:22;13.20;99.90
21047;DHT22;10682;50.874;3.656;2022-10-16T04:49:50;13.20;99.90
21047;DHT22;10682;50.874;3.656;2022-10-16T04:52:17;13.10;99.90
21047;DHT22;10682;50.874;3.656;2022-10-16T04:54:45;13.10;99.90
21047;DHT22;10682;50.874;3.656;2022-10-16T04:57:12;13.10;99.90
21047;DHT22;10682;50.874;3.656;2022-10-16T04:59:39;13.20;99.90
21047;DHT22;10682;50.874;3.656;2022-10-16T05:02:06;13.20;99.90
21047;DHT22;10682;50.874;3.656;2022-10-16T05:04:33;13.20;99.90
21047;DHT22;10682;50.874;3.656;2022-10-16T05:07:00;13.20;99.90
21047;DHT22;10682;50.874;3.656;2022-10-16T05:09:27;13.20;99.90
21047;DHT22;10682;50.874;3.656;2022-10-16T05:11:54;13.20;99.90
21047;DHT22;10682;50.874;3.656;2022-10-16T05:14:21;13.20;99.90
21047;DHT22;10682;50.874;3.656;2022-10-16T05:16:47;13.30;99.90
21047;DHT22;10682;50.874;3.656;2022-10-16T05:19:15;13.30;99.90
21047;DHT22;10682;50.874;3.656;2022-10-16T05:21:57;13.40;99.90
21047;DHT22;10682;50.874;3.656;2022-10-16T05:24:24;13.40;99.90
21047;DHT22;10682;50.874;3.656;2022-10-16T05:26:51;13.40;99.90
21047;DHT22;10682;50.874;3.656;2022-10-16T05:29:19;13.40;99.90
21047;DHT22;10682;50.874;3.656;2022-10-16T05:31:46;13.40;99.90
21047;DHT22;10682;50.874;3.656;2022-10-16T05:34:13;13.50;99.90
21047;DHT22;10682;50.874;3.656;2022-10-16T05:36:39;13.50;99.90
21047;DHT22;10682;50.874;3.656;2022-10-16T05:39:06;13.50;99.90
21047;DHT22;10682;50.874;3.656;2022-10-16T05:41:33;13.50;99.90
21047;DHT22;10682;50.874;3.656;2022-10-16T05:44:04;13.50;99.90
21047;DHT22;10682;50.874;3.656;2022-10-16T05:46:32;13.50;99.90
21047;DHT22;10682;50.874;3.656;2022-10-16T05:48:59;13.60;99.90
21047;DHT22;10682;50.874;3.656;2022-10-16T05:51:26;13.60;99.90
21047;DHT22;10682;50.874;3.656;2022-10-16T05:53:53;13.60;99.90
21047;DHT22;10682;50.874;3.656;2022-10-16T05:56:20;13.50;99.90
21047;DHT22;10682;50.874;3.656;2022-10-16T05:58:47;13.50;99.90
21047;DHT22;10682;50.874;3.656;2022-10-16T06:01:17;13.50;99.90
21047;DHT22;10682;50.874;3.656;2022-10-16T06:03:45;13.50;99.90
21047;DHT22;10682;50.874;3.656;2022-10-16T06:06:17;13.50;99.90
21047;DHT22;10682;50.874;3.656;2022-10-16T06:08:47;13.50;99.90
21047;DHT22;10682;50.874;3.656;2022-10-16T06:11:22;13.50;99.90
21047;DHT22;10682;50.874;3.656;2022-10-16T06:13:52;13.50;99.90
21047;DHT22;10682;50.874;3.656;2022-10-16T06:16:20;13.40;99.90
21047;DHT22;10682;50.874;3.656;2022-10-16T06:18:47;13.40;99.90
21047;DHT22;10682;50.874;3.656;2022-10-16T06:21:17;13.40;99.90
21047;DHT22;10682;50.874;3.656;2022-10-16T06:23:48;13.30;99.90
21047;DHT22;10682;50.874;3.656;2022-10-16T06:26:18;13.30;99.90
21047;DHT22;10682;50.874;3.656;2022-10-16T06:28:46;13.20;99.90
21047;DHT22;10682;50.874;3.656;2022-10-16T06:31:15;13.20;99.90
21047;DHT22;10682;50.874;3.656;2022-10-16T06:33:42;13.20;99.90
21047;DHT22;10682;50.874;3.656;2022-10-16T06:36:15;13.10;99.90
21047;DHT22;10682;50.874;3.656;2022-10-16T06:38:44;13.10;99.90
21047;DHT22;10682;50.874;3.656;2022-10-16T06:41:19;13.20;99.90
21047;DHT22;10682;50.874;3.656;2022-10-16T06:43:48;13.20;99.90
21047;DHT22;10682;50.874;3.656;2022-10-16T06:46:17;13.10;99.90
21047;DHT22;10682;50.874;3.656;2022-10-16T06:48:46;13.10;99.90
21047;DHT22;10682;50.874;3.656;2022-10-16T06:51:21;13.20;99.90
21047;DHT22;10682;50.874;3.656;2022-10-16T06:53:52;13.20;99.90
21047;DHT22;10682;50.874;3.656;2022-10-16T06:56:30;13.20;99.90
21047;DHT22;10682;50.874;3.656;2022-10-16T06:58:58;13.20;99.90
21047;DHT22;10682;50.874;3.656;2022-10-16T07:01:26;13.20;99.90
21047;DHT22;10682;50.874;3.656;2022-10-16T07:03:53;13.20;99.90
21047;DHT22;10682;50.874;3.656;2022-10-16T07:06:22;13.20;99.90
21047;DHT22;10682;50.874;3.656;2022-10-16T07:08:51;13.20;99.90
21047;DHT22;10682;50.874;3.656;2022-10-16T07:11:20;13.30;99.90
21047;DHT22;10682;50.874;3.656;2022-10-16T07:13:49;13.30;99.90
21047;DHT22;10682;50.874;3.656;2022-10-16T07:16:23;13.40;99.90
21047;DHT22;10682;50.874;3.656;2022-10-16T07:18:55;13.50;99.90
21047;DHT22;10682;50.874;3.656;2022-10-16T07:21:29;13.60;99.90
21047;DHT22;10682;50.874;3.656;2022-10-16T07:24:07;13.70;99.90
21047;DHT22;10682;50.874;3.656;2022-10-16T07:26:37;13.70;99.90
21047;DHT22;10682;50.874;3.656;2022-10-16T07:29:21;13.80;99.90
21047;DHT22;10682;50.874;3.656;2022-10-16T07:31:48;13.80;99.90
21047;DHT22;10682;50.874;3.656;2022-10-16T07:34:17;13.80;99.90
21047;DHT22;10682;50.874;3.656;2022-10-16T07:36:48;13.90;99.90
21047;DHT22;10682;50.874;3.656;2022-10-16T07:39:18;13.90;99.90
21047;DHT22;10682;50.874;3.656;2022-10-16T07:41:45;13.90;99.90
21047;DHT22;10682;50.874;3.656;2022-10-16T07:44:12;14.00;99.90
21047;DHT22;10682;50.874;3.656;2022-10-16T07:46:41;14.10;99.90
21047;DHT22;10682;50.874;3.656;2022-10-16T07:49:08;14.20;99.90
21047;DHT22;10682;50.874;3.656;2022-10-16T07:51:37;14.40;99.90
21047;DHT22;10682;50.874;3.656;2022-10-16T07:54:09;14.60;99.90
21047;DHT22;10682;50.874;3.656;2022-10-16T07:56:36;14.80;99.90
21047;DHT22;10682;50.874;3.656;2022-10-16T07:59:08;15.30;99.90
21047;DHT22;10682;50.874;3.656;2022-10-16T08:01:35;16.10;99.90
21047;DHT22;10682;50.874;3.656;2022-10-16T08:04:02;17.00;99.90
21047;DHT22;10682;50.874;3.656;2022-10-16T08:06:38;17.70;99.90
21047;DHT22;10682;50.874;3.656;2022-10-16T08:09:08;18.50;99.90
21047;DHT22;10682;50.874;3.656;2022-10-16T08:11:36;18.90;99.90
21047;DHT22;10682;50.874;3.656;2022-10-16T08:14:03;19.10;99.90
21047;DHT22;10682;50.874;3.656;2022-10-16T08:16:30;19.20;99.90
21047;DHT22;10682;50.874;3.656;2022-10-16T08:18:57;19.50;99.90
21047;DHT22;10682;50.874;3.656;2022-10-16T08:21:24;19.80;99.90
21047;DHT22;10682;50.874;3.656;2022-10-16T08:23:53;19.90;99.90
21047;DHT22;10682;50.874;3.656;2022-10-16T08:26:24;19.90;99.90
21047;DHT22;10682;50.874;3.656;2022-10-16T08:28:52;20.10;99.90
21047;DHT22;10682;50.874;3.656;2022-10-16T08:31:19;20.00;99.90
21047;DHT22;10682;50.874;3.656;2022-10-16T08:33:46;19.90;99.90
21047;DHT22;10682;50.874;3.656;2022-10-16T08:36:15;19.90;99.90
21047;DHT22;10682;50.874;3.656;2022-10-16T08:38:42;20.00;99.90
21047;DHT22;10682;50.874;3.656;2022-10-16T08:50:25;19.50;99.90
21047;DHT22;10682;50.874;3.656;2022-10-16T08:52:55;20.00;99.90
21047;DHT22;10682;50.874;3.656;2022-10-16T08:55:32;20.30;99.90
21047;DHT22;10682;50.874;3.656;2022-10-16T08:58:15;20.30;99.90
21047;DHT22;10682;50.874;3.656;2022-10-16T09:01:04;20.40;99.90
21047;DHT22;10682;50.874;3.656;2022-10-16T09:06:46;20.00;99.90
21047;DHT22;10682;50.874;3.656;2022-10-16T09:16:16;19.80;99.90
21047;DHT22;10682;50.874;3.656;2022-10-16T09:19:04;19.90;99.90
21047;DHT22;10682;50.874;3.656;2022-10-16T09:21:42;19.80;99.90
21047;DHT22;10682;50.874;3.656;2022-10-16T09:24:23;19.80;99.90
21047;DHT22;10682;50.874;3.656;2022-10-16T09:26:54;19.70;99.90
21047;DHT22;10682;50.874;3.656;2022-10-16T09:29:23;19.60;99.90
21047;DHT22;10682;50.874;3.656;2022-10-16T09:31:53;19.40;99.90
21047;DHT22;10682;50.874;3.656;2022-10-16T09:34:33;19.30;99.90
21047;DHT22;10682;50.874;3.656;2022-10-16T09:37:05;19.40;99.90
21047;DHT22;10682;50.874;3.656;2022-10-16T09:39:47;19.30;99.90
21047;DHT22;10682;50.874;3.656;2022-10-16T09:42:38;19.10;99.90
21047;DHT22;10682;50.874;3.656;2022-10-16T09:45:04;19.20;99.90
21047;DHT22;10682;50.874;3.656;2022-10-16T09:47:43;19.00;99.90
21047;DHT22;10682;50.874;3.656;2022-10-16T09:50:25;18.90;99.90
21047;DHT22;10682;50.874;3.656;2022-10-16T09:53:13;18.80;99.90
21047;DHT22;10682;50.874;3.656;2022-10-16T09:55:48;18.80;99.90
21047;DHT22;10682;50.874;3.656;2022-10-16T09:58:22;18.70;99.90
21047;DHT22;10682;50.874;3.656;2022-10-16T10:00:53;18.80;99.90
21047;DHT22;10682;50.874;3.656;2022-10-16T10:03:41;18.80;99.90
21047;DHT22;10682;50.874;3.656;2022-10-16T10:06:22;19.00;99.90
21047;DHT22;10682;50.874;3.656;2022-10-16T10:09:00;19.10;99.90
21047;DHT22;10682;50.874;3.656;2022-10-16T10:14:25;19.10;99.90
21047;DHT22;10682;50.874;3.656;2022-10-16T10:17:16;19.10;99.90
21047;DHT22;10682;50.874;3.656;2022-10-16T10:19:51;19.00;99.90
21047;DHT22;10682;50.874;3.656;2022-10-16T10:22:42;19.10;99.90
21047;DHT22;10682;50.874;3.656;2022-10-16T10:46:51;20.20;99.90
21047;DHT22;10682;50.874;3.656;2022-10-16T10:55:19;20.50;99.90
21047;DHT22;10682;50.874;3.656;2022-10-16T11:01:09;20.30;99.90
21047;DHT22;10682;50.874;3.656;2022-10-16T11:06:49;20.20;99.90
21047;DHT22;10682;50.874;3.656;2022-10-16T11:09:41;20.10;99.90
21047;DHT22;10682;50.874;3.656;2022-10-16T11:15:10;19.50;99.90
21047;DHT22;10682;50.874;3.656;2022-10-16T11:21:06;19.80;99.90
21047;DHT22;10682;50.874;3.656;2022-10-16T11:26:24;20.00;99.90
21047;DHT22;10682;50.874;3.656;2022-10-16T11:28:55;20.40;99.90
21047;DHT22;10682;50.874;3.656;2022-10-16T11:31:36;20.50;99.90
21047;DHT22;10682;50.874;3.656;2022-10-16T11:34:12;20.70;99.90
21047;DHT22;10682;50.874;3.656;2022-10-16T11:37:05;20.70;99.90
21047;DHT22;10682;50.874;3.656;2022-10-16T11:39:38;20.70;99.90
21047;DHT22;10682;50.874;3.656;2022-10-16T11:42:18;20.50;99.90
21047;DHT22;10682;50.874;3.656;2022-10-16T11:47:54;21.00;99.90
21047;DHT22;10682;50.874;3.656;2022-10-16T11:56:21;21.20;99.90
21047;DHT22;10682;50.874;3.656;2022-10-16T11:58:59;20.90;99.90
21047;DHT22;10682;50.874;3.656;2022-10-16T12:01:51;21.20;99.90
21047;DHT22;10682;50.874;3.656;2022-10-16T12:08:34;21.70;99.90
21047;DHT22;10682;50.874;3.656;2022-10-16T12:10:42;21.30;99.90
21047;DHT22;10682;50.874;3.656;2022-10-16T12:13:32;21.10;99.90
21047;DHT22;10682;50.874;3.656;2022-10-16T12:18:45;22.10;99.90
21047;DHT22;10682;50.874;3.656;2022-10-16T12:21:14;22.20;99.90
21047;DHT22;10682;50.874;3.656;2022-10-16T12:23:49;22.00;99.90
21047;DHT22;10682;50.874;3.656;2022-10-16T12:26:29;21.90;99.90
21047;DHT22;10682;50.874;3.656;2022-10-16T12:31:45;21.60;99.90
21047;DHT22;10682;50.874;3.656;2022-10-16T12:34:28;21.50;99.90
21047;DHT22;10682;50.874;3.656;2022-10-16T12:39:48;20.90;99.90
21047;DHT22;10682;50.874;3.656;2022-10-16T12:44:55;20.40;99.90
21047;DHT22;10682;50.874;3.656;2022-10-16T12:49:58;19.90;99.90
21047;DHT22;10682;50.874;3.656;2022-10-16T12:52:37;19.80;99.90
21047;DHT22;10682;50.874;3.656;2022-10-16T12:55:12;19.90;99.90
21047;DHT22;10682;50.874;3.656;2022-10-16T13:06:45;19.70;99.90
21047;DHT22;10682;50.874;3.656;2022-10-16T13:09:35;19.60;99.90
21047;DHT22;10682;50.874;3.656;2022-10-16T13:12:38;19.50;99.90
21047;DHT22;10682;50.874;3.656;2022-10-16T13:15:27;19.60;99.90
21047;DHT22;10682;50.874;3.656;2022-10-16T13:18:22;19.50;99.90
21047;DHT22;10682;50.874;3.656;2022-10-16T13:29:16;19.80;99.90
21047;DHT22;10682;50.874;3.656;2022-10-16T13:31:44;19.70;99.90
21047;DHT22;10682;50.874;3.656;2022-10-16T13:34:18;19.60;99.90
21047;DHT22;10682;50.874;3.656;2022-10-16T13:36:52;19.50;99.90
21047;DHT22;10682;50.874;3.656;2022-10-16T13:39:28;19.50;99.90
21047;DHT22;10682;50.874;3.656;2022-10-16T13:42:14;19.40;99.90
21047;DHT22;10682;50.874;3.656;2022-10-16T13:44:50;19.30;99.90
21047;DHT22;10682;50.874;3.656;2022-10-16T13:47:26;19.30;99.90
21047;DHT22;10682;50.874;3.656;2022-10-16T13:50:14;19.10;99.90
21047;DHT22;10682;50.874;3.656;2022-10-16T13:52:43;19.10;99.90
21047;DHT22;10682;50.874;3.656;2022-10-16T13:55:15;19.20;99.90
21047;DHT22;10682;50.874;3.656;2022-10-16T13:57:44;19.30;99.90
21047;DHT22;10682;50.874;3.656;2022-10-16T14:00:23;19.40;99.90
21047;DHT22;10682;50.874;3.656;2022-10-16T14:03:05;19.50;99.90
21047;DHT22;10682;50.874;3.656;2022-10-16T14:05:34;19.50;99.90
21047;DHT22;10682;50.874;3.656;2022-10-16T14:08:01;19.60;99.90
21047;DHT22;10682;50.874;3.656;2022-10-16T14:10:32;19.60;99.90
21047;DHT22;10682;50.874;3.656;2022-10-16T14:13:03;19.50;99.90
21047;DHT22;10682;50.874;3.656;2022-10-16T14:15:34;19.50;99.90
21047;DHT22;10682;50.874;3.656;2022-10-16T14:18:02;19.40;99.90
21047;DHT22;10682;50.874;3.656;2022-10-16T14:20:32;19.40;99.90
21047;DHT22;10682;50.874;3.656;2022-10-16T14:23:17;19.30;99.90
21047;DHT22;10682;50.874;3.656;2022-10-16T14:26:12;19.20;99.90
21047;DHT22;10682;50.874;3.656;2022-10-16T14:28:42;19.00;99.90
21047;DHT22;10682;50.874;3.656;2022-10-16T14:33:57;19.00;99.90
21047;DHT22;10682;50.874;3.656;2022-10-16T14:36:26;19.00;99.90
21047;DHT22;10682;50.874;3.656;2022-10-16T14:39:19;18.90;99.90
21047;DHT22;10682;50.874;3.656;2022-10-16T14:41:49;18.90;99.90
21047;DHT22;10682;50.874;3.656;2022-10-16T14:44:18;18.80;99.90
21047;DHT22;10682;50.874;3.656;2022-10-16T14:46:45;18.80;99.90
21047;DHT22;10682;50.874;3.656;2022-10-16T14:49:14;18.80;99.90
21047;DHT22;10682;50.874;3.656;2022-10-16T14:51:43;18.80;99.90
21047;DHT22;10682;50.874;3.656;2022-10-16T14:54:16;18.90;99.90
21047;DHT22;10682;50.874;3.656;2022-10-16T14:56:48;18.90;99.90
21047;DHT22;10682;50.874;3.656;2022-10-16T15:01:54;18.80;99.90
21047;DHT22;10682;50.874;3.656;2022-10-16T15:04:21;18.80;99.90
21047;DHT22;10682;50.874;3.656;2022-10-16T15:06:48;18.80;99.90
21047;DHT22;10682;50.874;3.656;2022-10-16T15:09:15;18.70;99.90
21047;DHT22;10682;50.874;3.656;2022-10-16T15:11:42;18.70;99.90
21047;DHT22;10682;50.874;3.656;2022-10-16T15:14:12;18.70;99.90
21047;DHT22;10682;50.874;3.656;2022-10-16T15:16:45;18.60;99.90
21047;DHT22;10682;50.874;3.656;2022-10-16T15:19:12;18.60;99.90
21047;DHT22;10682;50.874;3.656;2022-10-16T15:21:39;18.50;99.90
21047;DHT22;10682;50.874;3.656;2022-10-16T15:24:11;18.40;99.90
21047;DHT22;10682;50.874;3.656;2022-10-16T15:26:44;18.40;99.90
21047;DHT22;10682;50.874;3.656;2022-10-16T15:29:15;18.40;99.90
21047;DHT22;10682;50.874;3.656;2022-10-16T15:31:42;18.30;99.90
21047;DHT22;10682;50.874;3.656;2022-10-16T15:34:10;18.30;99.90
21047;DHT22;10682;50.874;3.656;2022-10-16T15:36:38;18.20;99.90
21047;DHT22;10682;50.874;3.656;2022-10-16T15:39:14;18.10;99.90
21047;DHT22;10682;50.874;3.656;2022-10-16T15:41:43;18.10;99.90
21047;DHT22;10682;50.874;3.656;2022-10-16T15:44:10;18.00;99.90
21047;DHT22;10682;50.874;3.656;2022-10-16T15:46:37;18.00;99.90
21047;DHT22;10682;50.874;3.656;2022-10-16T15:49:04;18.00;99.90
21047;DHT22;10682;50.874;3.656;2022-10-16T15:51:31;17.90;99.90
21047;DHT22;10682;50.874;3.656;2022-10-16T15:54:00;17.80;99.90
21047;DHT22;10682;50.874;3.656;2022-10-16T15:56:28;17.70;99.90
21047;DHT22;10682;50.874;3.656;2022-10-16T15:58:57;17.70;99.90
21047;DHT22;10682;50.874;3.656;2022-10-16T16:01:24;17.60;99.90
21047;DHT22;10682;50.874;3.656;2022-10-16T16:03:55;17.60;99.90
21047;DHT22;10682;50.874;3.656;2022-10-16T16:06:22;17.50;99.90
21047;DHT22;10682;50.874;3.656;2022-10-16T16:08:51;17.50;99.90
21047;DHT22;10682;50.874;3.656;2022-10-16T16:11:19;17.50;99.90
21047;DHT22;10682;50.874;3.656;2022-10-16T16:13:47;17.40;99.90
21047;DHT22;10682;50.874;3.656;2022-10-16T16:16:16;17.40;99.90
21047;DHT22;10682;50.874;3.656;2022-10-16T16:18:44;17.30;99.90
21047;DHT22;10682;50.874;3.656;2022-10-16T16:21:12;17.30;99.90
21047;DHT22;10682;50.874;3.656;2022-10-16T16:23:39;17.30;99.90
21047;DHT22;10682;50.874;3.656;2022-10-16T16:28:47;17.20;99.90
21047;DHT22;10682;50.874;3.656;2022-10-16T16:31:14;17.20;99.90
21047;DHT22;10682;50.874;3.656;2022-10-16T16:33:41;17.10;99.90
21047;DHT22;10682;50.874;3.656;2022-10-16T16:36:08;17.00;99.90
21047;DHT22;10682;50.874;3.656;2022-10-16T16:38:41;16.90;99.90
21047;DHT22;10682;50.874;3.656;2022-10-16T16:43:54;16.90;99.90
21047;DHT22;10682;50.874;3.656;2022-10-16T16:46:21;16.80;99.90
21047;DHT22;10682;50.874;3.656;2022-10-16T16:48:49;16.80;99.90
21047;DHT22;10682;50.874;3.656;2022-10-16T16:51:22;16.80;99.90
21047;DHT22;10682;50.874;3.656;2022-10-16T16:53:50;16.80;99.90
21047;DHT22;10682;50.874;3.656;2022-10-16T16:56:20;16.80;99.90
21047;DHT22;10682;50.874;3.656;2022-10-16T16:58:50;16.70;99.90
21047;DHT22;10682;50.874;3.656;2022-10-16T17:01:19;16.70;99.90
21047;DHT22;10682;50.874;3.656;2022-10-16T17:03:49;16.70;99.90
21047;DHT22;10682;50.874;3.656;2022-10-16T17:06:26;16.70;99.90
21047;DHT22;10682;50.874;3.656;2022-10-16T17:09:00;16.70;99.90
21047;DHT22;10682;50.874;3.656;2022-10-16T17:11:28;16.70;99.90
21047;DHT22;10682;50.874;3.656;2022-10-16T17:13:56;16.70;99.90
21047;DHT22;10682;50.874;3.656;2022-10-16T17:16:30;16.70;99.90
21047;DHT22;10682;50.874;3.656;2022-10-16T17:19:01;16.70;99.90
21047;DHT22;10682;50.874;3.656;2022-10-16T17:21:29;16.70;99.90
21047;DHT22;10682;50.874;3.656;2022-10-16T17:23:59;16.60;99.90
21047;DHT22;10682;50.874;3.656;2022-10-16T17:26:27;16.70;99.90
21047;DHT22;10682;50.874;3.656;2022-10-16T17:28:56;16.60;99.90
21047;DHT22;10682;50.874;3.656;2022-10-16T17:31:29;16.60;99.90
21047;DHT22;10682;50.874;3.656;2022-10-16T17:34:04;16.50;99.90
21047;DHT22;10682;50.874;3.656;2022-10-16T17:36:34;16.50;99.90
21047;DHT22;10682;50.874;3.656;2022-10-16T17:39:05;16.40;99.90
21047;DHT22;10682;50.874;3.656;2022-10-16T17:41:34;16.40;99.90
21047;DHT22;10682;50.874;3.656;2022-10-16T17:44:03;16.40;99.90
21047;DHT22;10682;50.874;3.656;2022-10-16T17:46:31;16.30;99.90
21047;DHT22;10682;50.874;3.656;2022-10-16T17:49:05;16.30;99.90
21047;DHT22;10682;50.874;3.656;2022-10-16T17:51:35;16.30;99.90
21047;DHT22;10682;50.874;3.656;2022-10-16T17:54:02;16.30;99.90
21047;DHT22;10682;50.874;3.656;2022-10-16T17:56:30;16.30;99.90
21047;DHT22;10682;50.874;3.656;2022-10-16T17:58:59;16.30;99.90
21047;DHT22;10682;50.874;3.656;2022-10-16T18:01:35;16.30;99.90
21047;DHT22;10682;50.874;3.656;2022-10-16T18:04:12;16.20;99.90
21047;DHT22;10682;50.874;3.656;2022-10-16T18:06:42;16.10;99.90
21047;DHT22;10682;50.874;3.656;2022-10-16T18:09:11;16.10;99.90
21047;DHT22;10682;50.874;3.656;2022-10-16T18:11:40;16.00;99.90
21047;DHT22;10682;50.874;3.656;2022-10-16T18:14:07;16.00;99.90
21047;DHT22;10682;50.874;3.656;2022-10-16T18:16:38;15.90;99.90
21047;DHT22;10682;50.874;3.656;2022-10-16T18:19:05;15.90;99.90